createdAt,value
2023-05-19T00:02:12.643Z,47.6
2023-05-19T00:08:18.425Z,47.6
2023-05-19T00:14:23.611Z,47.6
2023-05-19T00:20:28.749Z,47.6
2023-05-19T00:26:34.100Z,47.6
2023-05-19T00:32:39.466Z,47.6
2023-05-19T00:38:45.014Z,47.6
2023-05-19T00:44:50.663Z,47.6
2023-05-19T00:50:55.734Z,47.6
2023-05-19T00:57:01.726Z,47.6
2023-05-19T01:03:07.526Z,47.6
2023-05-19T01:09:13.482Z,47.7
2023-05-19T01:15:19.088Z,47.7
2023-05-19T01:21:24.258Z,47.7
2023-05-19T01:27:30.282Z,47.7
2023-05-19T01:33:35.960Z,47.7
2023-05-19T01:39:41.415Z,47.7
2023-05-19T01:45:47.172Z,47.8
2023-05-19T01:51:53.152Z,47.8
2023-05-19T01:57:58.906Z,47.8
2023-05-19T02:04:04.702Z,47.8
2023-05-19T02:10:10.697Z,47.8
2023-05-19T02:16:16.069Z,47.8
2023-05-19T02:22:21.607Z,47.9
2023-05-19T02:28:27.783Z,47.9
2023-05-19T02:34:33.592Z,48
2023-05-19T02:40:39.512Z,48
2023-05-19T02:46:45.445Z,48
2023-05-19T02:52:51.299Z,48
2023-05-19T02:58:56.442Z,48.1
2023-05-19T03:05:02.437Z,48.1
2023-05-19T03:11:07.674Z,48.1
2023-05-19T03:17:13.797Z,48.1
2023-05-19T03:23:19.406Z,48.1
2023-05-19T03:29:24.717Z,48.1
2023-05-19T03:35:30.925Z,48.1
2023-05-19T03:41:36.345Z,48.1
2023-05-19T03:47:41.694Z,48.1
2023-05-19T03:53:47.014Z,48
2023-05-19T03:59:52.320Z,47.9
2023-05-19T04:05:58.202Z,47.7
2023-05-19T04:12:03.943Z,47.4
2023-05-19T04:18:09.771Z,47.3
2023-05-19T04:24:15.300Z,47.2
2023-05-19T04:30:21.736Z,47.2
2023-05-19T04:36:27.266Z,47.2
2023-05-19T04:42:33.482Z,47.2
2023-05-19T04:48:38.673Z,47.1
2023-05-19T04:54:44.174Z,47.1
2023-05-19T05:00:49.548Z,47.1
2023-05-19T05:06:55.375Z,47.1
2023-05-19T05:13:01.103Z,47.1
2023-05-19T05:19:06.914Z,47
2023-05-19T05:25:12.507Z,47
2023-05-19T05:31:18.078Z,47
2023-05-19T05:37:23.396Z,47
2023-05-19T05:43:29.149Z,46.9
2023-05-19T05:49:34.954Z,46.8
2023-05-19T05:55:40.378Z,46.8
2023-05-19T06:01:46.114Z,46.8
2023-05-19T06:07:51.927Z,46.8
2023-05-19T06:13:57.700Z,46.8
2023-05-19T06:20:03.026Z,46.6
2023-05-19T06:26:08.245Z,46.4
2023-05-19T06:32:14.146Z,46.2
2023-05-19T06:38:20.188Z,41.4
2023-05-19T06:44:26.539Z,37.4
2023-05-19T06:50:32.144Z,33.2
2023-05-19T06:56:37.946Z,33.3
2023-05-19T07:02:43.943Z,29.2
2023-05-19T07:08:49.425Z,37.7
2023-05-19T07:14:55.252Z,43.6
2023-05-19T07:21:00.588Z,44.8
2023-05-19T07:27:06.142Z,46.1
2023-05-19T07:33:12.025Z,46.4
2023-05-19T07:39:17.603Z,45.1
2023-05-19T07:45:23.701Z,45.7
2023-05-19T07:51:29.464Z,46.4
2023-05-19T07:57:35.455Z,45.3
2023-05-19T08:03:41.075Z,45.5
2023-05-19T08:09:46.482Z,46.2
2023-05-19T08:15:52.664Z,46.2
2023-05-19T08:21:58.408Z,46.5
2023-05-19T08:28:03.536Z,46.7
2023-05-19T08:34:09.326Z,46.8
2023-05-19T08:40:14.742Z,46.9
2023-05-19T08:46:20.125Z,46.9
2023-05-19T08:52:26.292Z,47
2023-05-19T08:58:32.039Z,47
2023-05-19T09:04:38.069Z,46.9
2023-05-19T09:10:43.907Z,46.9
2023-05-19T09:16:50.003Z,46.9
2023-05-19T09:22:55.793Z,46.9
2023-05-19T09:29:01.129Z,46.9
2023-05-19T09:35:07.130Z,46.9
2023-05-19T09:41:12.656Z,47
2023-05-19T09:47:18.627Z,47
2023-05-19T09:53:24.258Z,46.9
2023-05-19T09:59:33.281Z,47
2023-05-19T10:05:39.655Z,47
2023-05-19T10:11:45.087Z,47
2023-05-19T10:17:50.852Z,47.1
2023-05-19T10:23:56.648Z,47
2023-05-19T10:30:01.930Z,47.1
2023-05-19T10:36:07.367Z,47
2023-05-19T10:42:12.951Z,47
2023-05-19T10:48:18.257Z,47
2023-05-19T10:54:23.871Z,46.9
2023-05-19T11:00:30.226Z,47.1
2023-05-19T11:06:35.805Z,47.1
2023-05-19T11:12:41.222Z,47
2023-05-19T11:18:46.819Z,47
2023-05-19T11:24:52.939Z,46.8
2023-05-19T11:30:58.350Z,46.8
2023-05-19T11:37:03.907Z,46.9
2023-05-19T11:43:09.229Z,46.9
2023-05-19T11:49:14.839Z,47
2023-05-19T11:55:20.375Z,47
2023-05-19T12:01:26.611Z,47.1
2023-05-19T12:07:32.140Z,47.1
2023-05-19T12:13:37.755Z,47.1
2023-05-19T12:19:43.535Z,47.1
2023-05-19T12:25:48.883Z,47
2023-05-19T12:31:54.229Z,47
2023-05-19T12:38:00.426Z,46.9
2023-05-19T12:44:06.002Z,46.9
2023-05-19T12:50:12.178Z,46.8
2023-05-19T12:56:18.002Z,46.8
2023-05-19T13:02:23.568Z,46.8
2023-05-19T13:08:29.316Z,46.9
2023-05-19T13:14:34.732Z,46.9
2023-05-19T13:20:40.079Z,46.9
2023-05-19T13:26:45.600Z,46.8
2023-05-19T13:32:51.033Z,46.7
2023-05-19T13:38:56.396Z,46.8
2023-05-19T13:45:01.756Z,46.8
2023-05-19T13:51:07.907Z,46.8
2023-05-19T13:57:13.874Z,46.8
2023-05-19T14:03:19.777Z,46.8
2023-05-19T14:09:25.640Z,47
2023-05-19T14:15:31.465Z,47
2023-05-19T14:21:36.802Z,47
2023-05-19T14:27:42.419Z,47
2023-05-19T14:33:48.143Z,47
2023-05-19T14:39:53.304Z,46.9
2023-05-19T14:45:59.488Z,46.9
2023-05-19T14:52:04.698Z,46.9
2023-05-19T14:58:27.375Z,47
2023-05-19T15:04:34.064Z,47.1
2023-05-19T15:10:40.003Z,47.1
2023-05-19T15:16:46.033Z,47.1
2023-05-19T15:22:51.580Z,47
2023-05-19T15:28:56.994Z,47
2023-05-19T15:35:02.388Z,47
2023-05-19T15:41:07.670Z,46.9
2023-05-19T15:47:13.095Z,46.8
2023-05-19T15:53:18.270Z,46.9
2023-05-19T15:59:24.180Z,47
2023-05-19T16:05:29.624Z,47
2023-05-19T16:11:34.971Z,47.2
2023-05-19T16:17:40.933Z,47.3
2023-05-19T16:23:46.333Z,47.3
2023-05-19T16:29:52.074Z,47.3
2023-05-19T16:35:57.463Z,47.3
2023-05-19T16:42:03.048Z,47.3
2023-05-19T16:48:08.990Z,47.3
2023-05-19T16:54:14.805Z,47.4
2023-05-19T17:00:19.966Z,47.4
2023-05-19T17:06:25.517Z,47.5
2023-05-19T17:12:31.064Z,47.5
2023-05-19T17:18:36.826Z,47.5
2023-05-19T17:24:42.630Z,47.6
2023-05-19T17:30:47.981Z,47.6
2023-05-19T17:36:53.634Z,47.6
2023-05-19T17:42:59.540Z,47.7
2023-05-19T17:49:05.393Z,47.7
2023-05-19T17:55:10.891Z,47.7
2023-05-19T18:01:16.453Z,47.7
2023-05-19T18:07:22.494Z,47.7
2023-05-19T18:13:28.217Z,47.7
2023-05-19T18:19:34.243Z,47.8
2023-05-19T18:25:40.195Z,47.8
2023-05-19T18:31:45.785Z,47.8
2023-05-19T18:37:51.581Z,47.8
2023-05-19T18:43:57.520Z,47.8
2023-05-19T18:50:03.486Z,47.8
2023-05-19T18:56:09.282Z,47.9
2023-05-19T19:02:14.625Z,47.8
2023-05-19T19:08:20.216Z,47.9
2023-05-19T19:14:25.824Z,48
2023-05-19T19:20:31.340Z,47.9
2023-05-19T19:26:37.151Z,47.9
2023-05-19T19:32:43.185Z,48.1
2023-05-19T19:38:48.955Z,48
2023-05-19T19:44:54.472Z,48
2023-05-19T19:51:00.051Z,48
2023-05-19T19:57:05.663Z,48.1
2023-05-19T20:03:11.836Z,48.1
2023-05-19T20:09:17.582Z,48.1
2023-05-19T20:15:23.419Z,48.2
2023-05-19T20:21:28.950Z,48.2
2023-05-19T20:27:34.505Z,48.2
2023-05-19T20:33:40.552Z,48.3
2023-05-19T20:39:46.672Z,48.3
2023-05-19T20:45:52.316Z,48.3
2023-05-19T20:51:58.216Z,48.3
2023-05-19T20:58:03.657Z,48.3
2023-05-19T21:04:09.202Z,48.3
2023-05-19T21:10:14.548Z,48.4
2023-05-19T21:16:20.599Z,48.4
2023-05-19T21:22:26.321Z,48.4
2023-05-19T21:28:31.873Z,48.4
2023-05-19T21:34:37.437Z,48.4
2023-05-19T21:40:42.611Z,48.4
2023-05-19T21:46:48.644Z,48.5
2023-05-19T21:52:54.564Z,48.5
2023-05-19T21:58:59.949Z,48.5
2023-05-19T22:05:05.275Z,48.5
2023-05-19T22:11:10.915Z,48.5
2023-05-19T22:17:16.677Z,48.5
2023-05-19T22:23:22.292Z,48.6
2023-05-19T22:29:28.016Z,48.6
2023-05-19T22:35:33.594Z,48.5
2023-05-19T22:41:39.838Z,48.6
2023-05-19T22:47:45.180Z,48.6
2023-05-19T22:53:50.924Z,48.6
2023-05-19T22:59:56.887Z,48.6
2023-05-19T23:06:02.676Z,48.6
2023-05-19T23:12:08.261Z,48.7
2023-05-19T23:18:13.837Z,48.8
2023-05-19T23:24:19.636Z,48.8
2023-05-19T23:30:25.388Z,48.9
2023-05-19T23:36:31.203Z,48.9
2023-05-19T23:42:37.181Z,48.9
2023-05-19T23:48:42.707Z,49
2023-05-19T23:54:48.935Z,49
